Time;durP1;ratioP1;P1;durP2;ratioP2;P2;SDS_P1;SDS_P2;PMS_P1;PMS_P2;Temp;Humidity;BMP_temperature;BMP_pressure;BME280_temperature;BME280_humidity;BME280_pressure;Samples;Min_cycle;Max_cycle;Signal;HPM_P1;HPM_P2
2020/12/30 00:01:06;;;;;;;0.40;0.40;;;;;;;2.76;100.00;100625.31;1809650;79;21137;-47
2020/12/30 00:03:35;;;;;;;0.25;0.25;;;;;;;2.72;100.00;100633.05;1809514;79;21170;-45
2020/12/30 00:06:05;;;;;;;2.90;1.30;;;;;;;2.69;100.00;100634.00;1809745;79;21549;-46
2020/12/30 00:08:33;;;;;;;0.75;0.75;;;;;;;2.64;100.00;100634.66;1809608;79;21115;-45
2020/12/30 00:11:01;;;;;;;0.55;0.55;;;;;;;2.61;100.00;100639.69;1809640;79;21138;-45
2020/12/30 00:13:29;;;;;;;1.95;1.85;;;;;;;2.62;100.00;100642.68;1809698;79;21135;-45
2020/12/30 00:15:57;;;;;;;1.98;1.10;;;;;;;2.59;100.00;100629.93;1809504;78;21222;-47
2020/12/30 00:18:25;;;;;;;0.23;0.23;;;;;;;2.58;100.00;100630.98;1809702;79;21150;-45
2020/12/30 00:20:53;;;;;;;0.47;0.47;;;;;;;2.57;100.00;100637.45;1809508;77;21517;-45
2020/12/30 00:23:21;;;;;;;1.75;1.20;;;;;;;2.56;100.00;100638.47;1809677;79;21139;-45
2020/12/30 00:25:50;;;;;;;1.45;1.25;;;;;;;2.56;100.00;100642.52;1809611;79;21124;-45
2020/12/30 00:28:18;;;;;;;0.62;0.62;;;;;;;2.57;100.00;100652.28;1809592;79;21132;-46
2020/12/30 00:30:46;;;;;;;0.90;0.45;;;;;;;2.57;100.00;100648.23;1809521;79;21458;-45
2020/12/30 00:33:14;;;;;;;0.68;0.60;;;;;;;2.57;100.00;100660.37;1809556;79;21434;-46
2020/12/30 00:35:42;;;;;;;1.98;1.57;;;;;;;2.57;100.00;100663.08;1809746;77;21179;-46
2020/12/30 00:38:09;;;;;;;5.92;1.07;;;;;;;2.56;100.00;100660.59;1809725;79;21142;-46
2020/12/30 00:40:38;;;;;;;0.65;0.65;;;;;;;2.54;100.00;100650.00;1809705;79;21158;-46
2020/12/30 00:43:07;;;;;;;0.25;0.25;;;;;;;2.53;100.00;100655.11;1809568;79;21186;-45
2020/12/30 00:45:35;;;;;;;0.78;0.78;;;;;;;2.52;100.00;100646.73;1809669;79;21111;-46
2020/12/30 00:48:02;;;;;;;0.80;0.80;;;;;;;2.53;100.00;100644.85;1809364;79;21112;-46
2020/12/30 00:50:30;;;;;;;0.60;0.57;;;;;;;2.54;100.00;100654.58;1809381;79;21589;-46
2020/12/30 00:52:57;;;;;;;0.30;0.30;;;;;;;2.55;100.00;100658.42;1809611;79;21177;-46
2020/12/30 00:55:25;;;;;;;2.08;0.85;;;;;;;2.57;100.00;100663.08;1809645;79;21166;-46
2020/12/30 00:57:55;;;;;;;2.70;1.47;;;;;;;2.59;100.00;100668.23;1805256;79;21103;-45
2020/12/30 01:00:22;;;;;;;1.40;1.10;;;;;;;2.63;100.00;100664.58;1809601;79;21585;-46
2020/12/30 01:03:09;;;;;;;1.40;1.40;;;;;;;2.65;100.00;100666.55;1809697;79;21123;-46
2020/12/30 01:05:37;;;;;;;1.32;0.85;;;;;;;2.66;100.00;100655.51;1809443;79;21150;-46
2020/12/30 01:08:05;;;;;;;2.15;1.80;;;;;;;2.71;100.00;100649.45;1809586;79;21546;-46
2020/12/30 01:10:32;;;;;;;2.17;1.25;;;;;;;2.72;100.00;100653.28;1809884;78;21120;-46
2020/12/30 01:13:00;;;;;;;1.67;1.57;;;;;;;2.73;100.00;100660.84;1810037;79;21554;-46
2020/12/30 01:15:28;;;;;;;1.10;1.07;;;;;;;2.74;100.00;100658.44;1810218;79;21158;-46
2020/12/30 01:17:56;;;;;;;1.52;0.95;;;;;;;2.75;100.00;100650.66;1810159;79;21534;-47
2020/12/30 01:20:23;;;;;;;1.82;1.70;;;;;;;2.75;100.00;100640.69;1810261;79;21111;-46
2020/12/30 01:22:51;;;;;;;0.60;0.47;;;;;;;2.76;100.00;100646.91;1803583;79;21119;-45
2020/12/30 01:25:18;;;;;;;0.78;0.78;;;;;;;2.76;100.00;100640.16;1763770;81;21156;-46
2020/12/30 01:27:46;;;;;;;0.42;0.42;;;;;;;2.78;100.00;100655.61;1763499;81;21134;-47
2020/12/30 01:30:13;;;;;;;1.55;0.82;;;;;;;2.80;100.00;100660.27;1762662;81;21154;-47
2020/12/30 01:32:41;;;;;;;1.65;1.55;;;;;;;2.82;100.00;100658.17;1763072;81;21134;-48
2020/12/30 01:35:08;;;;;;;1.80;1.42;;;;;;;2.83;100.00;100649.02;1763171;81;21580;-47
2020/12/30 01:37:36;;;;;;;1.45;0.80;;;;;;;2.86;100.00;100647.74;1763119;81;21593;-47
2020/12/30 01:40:04;;;;;;;3.08;1.67;;;;;;;2.89;100.00;100652.16;1754296;81;21158;-47
2020/12/30 01:42:48;;;;;;;3.87;1.90;;;;;;;2.90;100.00;100651.66;1758631;81;21126;-46
2020/12/30 01:45:16;;;;;;;4.58;1.20;;;;;;;2.89;100.00;100641.36;1778151;80;21118;-48
2020/12/30 01:47:46;;;;;;;1.75;1.65;;;;;;;2.91;100.00;100643.84;1759215;81;21118;-48
2020/12/30 01:50:14;;;;;;;0.10;0.10;;;;;;;2.90;100.00;100643.03;1734230;81;21399;-47
2020/12/30 01:52:42;;;;;;;1.75;1.12;;;;;;;2.93;100.00;100643.92;1733965;81;21569;-47
2020/12/30 01:55:11;;;;;;;1.85;1.75;;;;;;;2.98;100.00;100644.60;1759501;81;21229;-47
2020/12/30 01:57:39;;;;;;;0.45;0.45;;;;;;;3.04;100.00;100656.38;1759532;81;21183;-47
2020/12/30 02:00:07;;;;;;;0.10;0.10;;;;;;;3.06;100.00;100651.05;1759233;81;21481;-47
2020/12/30 02:02:37;;;;;;;1.82;0.90;;;;;;;3.10;100.00;100643.34;1759512;81;21106;-47
2020/12/30 02:05:07;;;;;;;0.72;0.60;;;;;;;3.15;100.00;100650.23;1759504;81;21555;-47
2020/12/30 02:07:35;;;;;;;0.80;0.40;;;;;;;3.19;100.00;100651.41;1759234;81;21552;-47
2020/12/30 02:10:02;;;;;;;1.02;1.00;;;;;;;3.22;100.00;100646.41;1743569;80;21131;-48
2020/12/30 02:12:30;;;;;;;0.20;0.20;;;;;;;3.26;100.00;100639.19;1788490;80;21123;-47
2020/12/30 02:14:58;;;;;;;0.70;0.70;;;;;;;3.31;100.00;100646.91;1788259;80;21139;-48
2020/12/30 02:17:25;;;;;;;0.20;0.20;;;;;;;3.38;100.00;100641.44;1788193;80;21110;-48
2020/12/30 02:19:53;;;;;;;0.28;0.28;;;;;;;3.40;100.00;100637.45;1788192;80;21135;-48
2020/12/30 02:22:21;;;;;;;0.33;0.33;;;;;;;3.41;100.00;100643.67;1788437;80;21119;-47
2020/12/30 02:24:49;;;;;;;0.23;0.23;;;;;;;3.45;100.00;100644.88;1787951;79;21126;-47
2020/12/30 02:27:17;;;;;;;0.20;0.20;;;;;;;3.45;100.00;100648.39;1804595;79;21161;-48
2020/12/30 02:29:45;;;;;;;0.03;0.03;;;;;;;3.45;100.00;100645.70;1804658;79;21233;-47
2020/12/30 02:32:12;;;;;;;0.30;0.30;;;;;;;3.44;100.00;100644.06;1804659;79;21754;-47
2020/12/30 02:34:40;;;;;;;4.17;0.80;;;;;;;3.45;100.00;100643.53;1797343;79;21545;-49
2020/12/30 02:37:08;;;;;;;1.65;0.72;;;;;;;3.44;100.00;100645.41;1804037;79;21572;-49
2020/12/30 02:39:36;;;;;;;1.35;0.33;;;;;;;3.45;100.00;100642.17;1803993;79;21580;-48
2020/12/30 02:42:04;;;;;;;0.80;0.65;;;;;;;3.44;100.00;100637.84;1803898;79;21165;-48
2020/12/30 02:44:32;;;;;;;0.42;0.42;;;;;;;3.44;100.00;100629.20;1803710;79;21418;-47
2020/12/30 02:46:59;;;;;;;0.93;0.62;;;;;;;3.44;100.00;100621.09;1804047;79;22016;-47
2020/12/30 02:49:26;;;;;;;0.80;0.80;;;;;;;3.44;100.00;100629.73;1803792;79;21118;-49
2020/12/30 02:51:54;;;;;;;0.60;0.33;;;;;;;3.40;100.00;100630.70;1804102;79;21114;-48
2020/12/30 02:54:21;;;;;;;9.88;1.05;;;;;;;3.39;100.00;100620.14;1804080;79;21224;-48
2020/12/30 02:56:49;;;;;;;0.57;0.40;;;;;;;3.39;100.00;100621.48;1804028;79;21138;-48
2020/12/30 02:59:16;;;;;;;0.53;0.40;;;;;;;3.38;100.00;100624.69;1804090;79;21814;-48
2020/12/30 03:01:44;;;;;;;0.35;0.30;;;;;;;3.37;100.00;100634.39;1803936;79;21592;-48
2020/12/30 03:04:12;;;;;;;2.02;0.62;;;;;;;3.35;100.00;100626.50;1775164;79;21465;-49
2020/12/30 03:06:40;;;;;;;0.53;0.53;;;;;;;3.35;100.00;100621.10;1803908;79;21129;-48
2020/12/30 03:09:07;;;;;;;0.10;0.10;;;;;;;3.35;100.00;100623.80;1803813;79;21192;-49
2020/12/30 03:11:35;;;;;;;0.45;0.45;;;;;;;3.36;100.00;100630.02;1793137;79;21110;-49
2020/12/30 03:14:03;;;;;;;2.55;0.80;;;;;;;3.35;100.00;100634.61;1799809;79;21232;-49
2020/12/30 03:16:31;;;;;;;1.52;1.32;;;;;;;3.34;100.00;100634.32;1799622;79;21150;-50
2020/12/30 03:18:58;;;;;;;0.23;0.23;;;;;;;3.34;100.00;100643.78;1792569;79;21144;-51
2020/12/30 03:21:26;;;;;;;2.77;2.37;;;;;;;3.31;100.00;100641.51;1800558;79;21119;-48
2020/12/30 03:23:53;;;;;;;0.10;0.10;;;;;;;3.28;100.00;100637.09;1800692;79;21118;-48
2020/12/30 03:26:21;;;;;;;1.35;0.80;;;;;;;3.24;100.00;100644.84;1800654;79;21612;-49
2020/12/30 03:28:49;;;;;;;1.15;0.47;;;;;;;3.23;100.00;100645.88;1800551;79;21106;-48
2020/12/30 03:31:16;;;;;;;0.42;0.42;;;;;;;3.21;100.00;100638.02;1783466;79;21214;-48
2020/12/30 03:33:44;;;;;;;1.72;1.20;;;;;;;3.21;100.00;100636.66;1784841;80;21147;-48
2020/12/30 03:36:11;;;;;;;1.32;1.15;;;;;;;3.20;100.00;100631.48;1785026;80;21550;-49
2020/12/30 03:38:39;;;;;;;0.80;0.23;;;;;;;3.18;100.00;100636.27;1782860;79;21134;-47
2020/12/30 03:41:07;;;;;;;0.45;0.45;;;;;;;3.16;100.00;100628.92;1798546;79;21126;-48
2020/12/30 03:43:34;;;;;;;0.62;0.62;;;;;;;3.14;100.00;100629.66;1798611;79;21146;-47
2020/12/30 03:46:02;;;;;;;0.28;0.28;;;;;;;3.14;100.00;100629.16;1798483;79;21123;-48
2020/12/30 03:48:30;;;;;;;0.10;0.10;;;;;;;3.13;100.00;100627.50;1798572;79;21600;-48
2020/12/30 03:50:57;;;;;;;0.30;0.30;;;;;;;3.12;100.00;100626.39;1798473;79;21155;-48
2020/12/30 03:53:25;;;;;;;0.95;0.75;;;;;;;3.12;100.00;100623.69;1798694;79;21142;-48
2020/12/30 03:55:53;;;;;;;3.62;1.72;;;;;;;3.14;100.00;100629.66;1798605;79;21166;-48
2020/12/30 03:58:20;;;;;;;0.93;0.85;;;;;;;3.15;100.00;100628.63;1798522;79;21169;-49
2020/12/30 04:00:48;;;;;;;0.40;0.40;;;;;;;3.16;100.00;100623.52;1798613;79;21153;-48
2020/12/30 04:03:15;;;;;;;0.35;0.35;;;;;;;3.16;100.00;100624.34;1798508;79;21710;-48
2020/12/30 04:05:43;;;;;;;1.17;0.72;;;;;;;3.18;100.00;100631.70;1783297;79;21215;-49
2020/12/30 04:08:10;;;;;;;0.42;0.42;;;;;;;3.22;100.00;100637.48;1795908;79;21157;-48
2020/12/30 04:10:37;;;;;;;0.10;0.10;;;;;;;3.23;100.00;100638.59;1797494;79;21151;-47
2020/12/30 04:13:06;;;;;;;0.40;0.40;;;;;;;3.24;100.00;100638.09;1796611;79;21635;-50
2020/12/30 04:15:34;;;;;;;0.62;0.62;;;;;;;3.25;100.00;100623.52;1771405;79;21090;-49
2020/12/30 04:18:02;;;;;;;0.82;0.55;;;;;;;3.27;100.00;100625.47;1768870;81;21469;-48
2020/12/30 04:20:30;;;;;;;1.07;0.80;;;;;;;3.29;100.00;100635.53;1768550;79;21160;-50
2020/12/30 04:22:57;;;;;;;0.62;0.62;;;;;;;3.33;100.00;100635.89;1769090;81;21579;-49
2020/12/30 04:25:25;;;;;;;1.10;1.10;;;;;;;3.33;100.00;100628.60;1768942;79;21209;-49
2020/12/30 04:27:52;;;;;;;0.42;0.42;;;;;;;3.35;100.00;100622.98;1769055;81;21629;-48
2020/12/30 04:30:20;;;;;;;0.00;0.00;;;;;;;3.36;100.00;100634.92;1768912;79;21445;-48
2020/12/30 04:32:47;;;;;;;1.35;1.02;;;;;;;3.38;100.00;100622.52;1768897;81;21170;-48
2020/12/30 04:35:15;;;;;;;0.60;0.60;;;;;;;3.40;100.00;100625.83;1768867;79;21118;-50
2020/12/30 04:37:43;;;;;;;0.95;0.57;;;;;;;3.40;100.00;100628.00;1769018;81;21122;-47
2020/12/30 04:40:10;;;;;;;2.45;0.78;;;;;;;3.40;100.00;100626.64;1768815;79;21483;-49
2020/12/30 04:42:38;;;;;;;0.10;0.10;;;;;;;3.39;100.00;100630.41;1770812;79;21430;-50
2020/12/30 04:45:09;;;;;;;0.20;0.20;;;;;;;3.38;100.00;100631.98;1754821;80;21154;-48
2020/12/30 04:47:37;;;;;;;0.98;0.98;;;;;;;3.33;100.00;100632.66;1787897;80;21154;-48
2020/12/30 04:50:05;;;;;;;0.20;0.20;;;;;;;3.29;100.00;100639.58;1787981;79;21620;-49
2020/12/30 04:52:32;;;;;;;1.10;1.02;;;;;;;3.24;100.00;100636.73;1773431;79;21162;-49
2020/12/30 04:55:00;;;;;;;0.05;0.05;;;;;;;3.19;100.00;100637.91;1763579;81;21162;-49
2020/12/30 04:58:05;;;;;;;0.40;0.40;;;;;;;3.16;100.00;100635.14;1730211;80;21259;-49
2020/12/30 05:00:36;;;;;;;1.02;0.98;;;;;;;3.12;100.00;100629.91;1782807;80;21197;-49
2020/12/30 05:03:10;;;;;;;0.17;0.17;;;;;;;3.09;100.00;100634.92;1788257;80;21095;-49
2020/12/30 05:05:39;;;;;;;0.10;0.10;;;;;;;3.05;100.00;100635.91;1787589;80;21206;-49
2020/12/30 05:08:14;;;;;;;0.57;0.57;;;;;;;3.04;100.00;100640.17;1787722;80;21141;-48
2020/12/30 05:10:46;;;;;;;0.62;0.62;;;;;;;3.03;100.00;100636.66;1782261;79;21218;-47
2020/12/30 05:13:14;;;;;;;0.20;0.20;;;;;;;3.02;100.00;100643.11;1753923;81;21139;-49
2020/12/30 05:15:42;;;;;;;3.10;1.45;;;;;;;2.99;100.00;100644.39;1733057;82;21222;-48
2020/12/30 05:18:10;;;;;;;0.00;0.00;;;;;;;2.98;100.00;100651.35;1791547;80;21492;-49
2020/12/30 05:20:37;;;;;;;1.07;0.57;;;;;;;2.96;100.00;100648.86;1791585;80;21445;-48
2020/12/30 05:23:05;;;;;;;0.30;0.23;;;;;;;2.94;100.00;100649.64;1754192;81;21438;-48
2020/12/30 05:25:35;;;;;;;0.62;0.17;;;;;;;2.92;100.00;100644.98;1754034;81;21130;-50
2020/12/30 05:28:04;;;;;;;3.75;0.30;;;;;;;2.90;100.00;100658.41;1733336;82;21493;-49
2020/12/30 05:30:32;;;;;;;0.33;0.33;;;;;;;2.87;100.00;100666.92;1743673;80;21148;-48
2020/12/30 05:33:00;;;;;;;0.40;0.40;;;;;;;2.87;100.00;100666.92;1720083;82;21112;-48
2020/12/30 05:35:28;;;;;;;0.53;0.53;;;;;;;2.85;100.00;100669.05;1754484;81;21185;-50
2020/12/30 05:37:56;;;;;;;0.80;0.70;;;;;;;2.83;100.00;100680.05;1754393;81;21180;-49
2020/12/30 05:40:29;;;;;;;1.17;1.10;;;;;;;2.79;100.00;100682.89;1760798;80;21153;-49
2020/12/30 05:43:15;;;;;;;1.12;0.65;;;;;;;2.76;100.00;100686.03;1754449;81;21129;-48
2020/12/30 05:45:51;;;;;;;0.08;0.08;;;;;;;2.74;100.00;100682.73;1754336;81;21128;-48
2020/12/30 05:48:21;;;;;;;0.33;0.33;;;;;;;2.75;100.00;100684.40;1754126;81;21184;-48
2020/12/30 05:50:57;;;;;;;0.65;0.40;;;;;;;2.75;100.00;100683.05;1754337;81;21456;-48
2020/12/30 05:53:25;;;;;;;0.45;0.45;;;;;;;2.75;100.00;100687.09;1754407;81;21745;-49
2020/12/30 05:55:55;;;;;;;1.00;0.80;;;;;;;2.74;100.00;100689.47;1754367;81;21436;-48
2020/12/30 05:58:23;;;;;;;0.57;0.57;;;;;;;2.74;100.00;100692.17;1750795;81;21102;-50
2020/12/30 06:00:50;;;;;;;1.87;1.40;;;;;;;2.71;100.00;100698.84;1693188;81;21140;-51
2020/12/30 06:03:23;;;;;;;1.87;0.65;;;;;;;2.70;100.00;100701.78;1754493;81;21187;-50
2020/12/30 06:05:51;;;;;;;1.10;0.23;;;;;;;2.68;100.00;100702.52;1754134;81;21148;-49
2020/12/30 06:08:18;;;;;;;0.10;0.10;;;;;;;2.66;100.00;100707.30;1716786;81;21657;-51
2020/12/30 06:10:46;;;;;;;1.22;1.12;;;;;;;2.66;100.00;100714.05;1728313;81;21124;-50
2020/12/30 06:13:16;;;;;;;0.20;0.20;;;;;;;2.67;100.00;100719.73;1793866;80;21106;-49
2020/12/30 06:15:43;;;;;;;1.67;1.57;;;;;;;2.69;100.00;100713.60;1786948;78;21142;-50
2020/12/30 06:18:11;;;;;;;0.42;0.42;;;;;;;2.70;100.00;100709.88;1750084;78;21120;-49
2020/12/30 06:20:40;;;;;;;0.15;0.15;;;;;;;2.71;100.00;100715.56;1767926;78;21106;-50
2020/12/30 06:23:14;;;;;;;0.10;0.10;;;;;;;2.72;100.00;100707.75;1826401;78;21134;-49
2020/12/30 06:25:44;;;;;;;0.10;0.10;;;;;;;2.72;100.00;100711.30;1793481;80;21173;-50
2020/12/30 06:28:19;;;;;;;0.62;0.50;;;;;;;2.74;100.00;100705.67;1824499;78;21620;-49
2020/12/30 06:30:49;;;;;;;0.13;0.13;;;;;;;2.75;100.00;100705.98;1822898;78;21110;-49
2020/12/30 06:33:22;;;;;;;0.08;0.08;;;;;;;2.77;100.00;100709.30;1826448;78;21146;-49
2020/12/30 06:35:55;;;;;;;5.50;0.55;;;;;;;2.76;100.00;100717.89;1820890;78;21560;-49
2020/12/30 06:38:27;;;;;;;0.72;0.72;;;;;;;2.76;100.00;100715.72;1796547;78;21122;-50
2020/12/30 06:41:04;;;;;;;0.70;0.70;;;;;;;2.76;100.00;100714.38;1792515;78;21589;-50
2020/12/30 06:43:42;;;;;;;1.85;0.70;;;;;;;2.75;100.00;100712.73;1797097;78;21157;-50
2020/12/30 06:46:11;;;;;;;0.65;0.65;;;;;;;2.74;100.00;100711.06;1815718;78;21245;-49
2020/12/30 06:48:57;;;;;;;0.30;0.30;;;;;;;2.75;100.00;100710.03;1826035;78;21169;-49
2020/12/30 06:51:27;;;;;;;1.37;0.53;;;;;;;2.76;100.00;100707.63;1810912;78;21130;-51
2020/12/30 06:53:55;;;;;;;0.60;0.60;;;;;;;2.77;100.00;100705.25;1802813;78;21887;-49
2020/12/30 06:56:42;;;;;;;0.00;0.00;;;;;;;2.77;100.00;100710.64;1765603;81;21110;-49
2020/12/30 06:59:29;;;;;;;0.00;0.00;;;;;;;2.79;100.00;100710.72;1771945;79;21110;-50
2020/12/30 07:02:08;;;;;;;0.00;0.00;;;;;;;2.82;100.00;100705.91;1790756;78;21162;-49
2020/12/30 07:04:35;;;;;;;3.30;1.87;;;;;;;2.85;100.00;100707.66;1812032;78;21137;-49
2020/12/30 07:07:20;;;;;;;0.35;0.35;;;;;;;2.84;100.00;100704.64;1797784;79;21684;-50
2020/12/30 07:09:47;;;;;;;0.45;0.45;;;;;;;2.89;100.00;100712.89;1792993;79;21131;-48
2020/12/30 07:12:16;;;;;;;0.88;0.88;;;;;;;2.91;100.00;100706.75;1788729;78;21144;-51
2020/12/30 07:14:43;;;;;;;1.55;0.85;;;;;;;2.92;100.00;100708.42;1785711;79;21107;-49
2020/12/30 07:17:11;;;;;;;1.10;0.62;;;;;;;2.95;100.00;100701.75;1810824;79;21162;-50
2020/12/30 07:19:40;;;;;;;0.72;0.72;;;;;;;2.96;100.00;100704.20;1806635;78;21194;-50
2020/12/30 07:22:10;;;;;;;0.20;0.20;;;;;;;2.99;100.00;100701.09;1784187;79;21150;-48
2020/12/30 07:24:47;;;;;;;0.53;0.53;;;;;;;3.01;100.00;100698.14;1825327;78;21128;-49
2020/12/30 07:27:16;;;;;;;0.50;0.50;;;;;;;3.00;100.00;100697.33;1771925;79;21141;-49
2020/12/30 07:29:45;;;;;;;0.00;0.00;;;;;;;3.01;100.00;100700.31;1796719;79;21420;-49
2020/12/30 07:32:14;;;;;;;0.75;0.75;;;;;;;3.05;100.00;100706.64;1796805;79;21134;-50
2020/12/30 07:34:46;;;;;;;1.10;0.60;;;;;;;3.09;100.00;100697.02;1765104;81;21137;-48
2020/12/30 07:37:15;;;;;;;0.15;0.15;;;;;;;3.11;100.00;100693.58;1796655;79;21098;-50
2020/12/30 07:39:47;;;;;;;0.28;0.28;;;;;;;3.12;100.00;100702.00;1793667;79;21145;-48
2020/12/30 07:42:19;;;;;;;;;;;;;;;3.15;100.00;100705.59;1812842;78;21153;-51
2020/12/30 07:44:54;;;;;;;0.03;0.03;;;;;;;3.19;100.00;100698.17;1795050;79;20459;-48
2020/12/30 07:47:26;;;;;;;0.50;0.50;;;;;;;3.22;100.00;100705.00;1796050;79;21134;-49
2020/12/30 07:50:02;;;;;;;0.23;0.23;;;;;;;3.20;100.00;100707.91;1802830;78;21166;-50
2020/12/30 07:52:30;;;;;;;4.45;3.05;;;;;;;3.17;100.00;100710.25;1798058;78;21142;-50
2020/12/30 07:54:58;;;;;;;0.20;0.20;;;;;;;3.18;100.00;100714.59;1795630;79;21178;-49
2020/12/30 07:57:26;;;;;;;1.12;1.00;;;;;;;3.15;100.00;100725.31;1798255;78;21127;-49
2020/12/30 07:59:55;;;;;;;0.40;0.40;;;;;;;3.14;100.00;100733.62;1810445;79;21147;-48
2020/12/30 08:02:24;;;;;;;1.45;0.47;;;;;;;3.13;100.00;100723.36;1805141;78;21160;-50
2020/12/30 08:05:01;;;;;;;0.20;0.20;;;;;;;3.17;100.00;100719.70;1819521;78;21139;-50
2020/12/30 08:07:31;;;;;;;0.03;0.03;;;;;;;3.19;100.00;100715.73;1803597;78;21583;-50
2020/12/30 08:09:59;;;;;;;1.12;1.02;;;;;;;3.25;100.00;100714.53;1796328;79;21137;-48
2020/12/30 08:12:27;;;;;;;0.28;0.28;;;;;;;3.30;100.00;100721.43;1778021;79;21438;-50
2020/12/30 08:14:55;;;;;;;0.30;0.30;;;;;;;3.34;100.00;100720.77;1745856;81;21134;-49
2020/12/30 08:17:23;;;;;;;0.25;0.25;;;;;;;3.38;100.00;100716.54;1728757;81;21136;-50
2020/12/30 08:19:51;;;;;;;1.95;0.88;;;;;;;3.44;100.00;100722.41;1740626;81;21198;-49
2020/12/30 08:22:26;;;;;;;3.20;0.50;;;;;;;3.50;100.00;100729.31;1754446;81;21138;-50
2020/12/30 08:24:58;;;;;;;3.45;1.60;;;;;;;3.55;100.00;100728.11;1764610;81;21142;-49
2020/12/30 08:27:27;;;;;;;0.75;0.75;;;;;;;3.62;100.00;100728.85;1750009;81;21134;-49
2020/12/30 08:29:58;;;;;;;1.32;1.07;;;;;;;3.68;100.00;100725.23;1750114;81;21122;-50
2020/12/30 08:32:38;;;;;;;0.47;0.47;;;;;;;3.74;100.00;100720.28;1748356;81;21581;-50
2020/12/30 08:35:25;;;;;;;1.90;0.90;;;;;;;3.80;100.00;100726.11;1746817;81;21118;-49
2020/12/30 08:38:15;;;;;;;1.70;1.62;;;;;;;3.87;100.00;100721.98;1728172;81;21125;-49
2020/12/30 08:40:43;;;;;;;4.05;1.52;;;;;;;3.94;100.00;100721.91;1759101;81;21541;-49
2020/12/30 08:43:36;;;;;;;4.83;1.02;;;;;;;4.01;100.00;100716.70;1759621;81;21446;-50
2020/12/30 08:46:08;;;;;;;0.60;0.60;;;;;;;4.06;100.00;100714.66;1746568;81;21632;-49
2020/12/30 08:48:47;;;;;;;1.15;1.15;;;;;;;4.12;100.00;100713.73;1728957;82;21147;-51
2020/12/30 08:51:32;;;;;;;1.02;0.53;;;;;;;4.17;100.00;100716.56;1725908;82;21120;-48
2020/12/30 08:54:00;;;;;;;0.70;0.70;;;;;;;4.22;100.00;100709.11;1759078;81;21131;-50
2020/12/30 08:56:29;;;;;;;1.60;1.17;;;;;;;4.25;100.00;100711.34;1763916;81;21568;-50
2020/12/30 08:58:57;;;;;;;1.57;0.93;;;;;;;4.31;100.00;100709.91;1742871;81;21672;-49
2020/12/30 09:01:26;;;;;;;0.45;0.42;;;;;;;4.38;100.00;100711.70;1783945;80;21130;-50
2020/12/30 09:03:56;;;;;;;1.07;1.07;;;;;;;4.44;100.00;100708.05;1764555;80;21476;-50
2020/12/30 09:06:26;;;;;;;0.85;0.75;;;;;;;4.52;100.00;100706.34;1783860;80;38071;-49
2020/12/30 09:08:55;;;;;;;0.37;0.37;;;;;;;4.57;100.00;100705.66;1779020;80;21156;-50
2020/12/30 09:11:23;;;;;;;0.40;0.40;;;;;;;4.64;100.00;100704.48;1729635;81;21201;-49
2020/12/30 09:13:50;;;;;;;0.10;0.10;;;;;;;4.69;100.00;100710.02;1772917;79;21150;-50
2020/12/30 09:16:18;;;;;;;0.47;0.47;;;;;;;4.74;100.00;100702.02;1754554;80;21668;-51
2020/12/30 09:18:48;;;;;;;0.75;0.75;;;;;;;4.77;100.00;100698.55;1766550;80;21469;-49
2020/12/30 09:21:27;;;;;;;0.00;0.00;;;;;;;4.77;100.00;100689.08;1807025;78;21127;-50
2020/12/30 09:23:54;;;;;;;0.25;0.25;;;;;;;4.78;100.00;100688.85;1767122;80;21130;-50
2020/12/30 09:26:28;;;;;;;0.00;0.00;;;;;;;4.79;100.00;100685.07;1817271;78;21179;-50
2020/12/30 09:28:56;;;;;;;0.25;0.25;;;;;;;4.79;100.00;100686.96;1787347;78;21115;-49
2020/12/30 09:31:24;;;;;;;0.45;0.45;;;;;;;4.80;100.00;100681.33;1779513;79;21567;-49
2020/12/30 09:33:51;;;;;;;0.75;0.75;;;;;;;4.81;100.00;100671.31;1774823;80;21487;-49
2020/12/30 09:36:19;;;;;;;1.95;0.53;;;;;;;4.82;100.00;100672.44;1790698;79;21194;-50
2020/12/30 09:38:54;;;;;;;0.10;0.10;;;;;;;4.85;100.00;100672.50;1767524;79;21182;-50
2020/12/30 09:41:22;;;;;;;0.23;0.23;;;;;;;4.84;100.00;100666.77;1755582;81;21173;-49
2020/12/30 09:43:49;;;;;;;0.28;0.28;;;;;;;4.86;100.00;100666.02;1762021;79;21129;-49
2020/12/30 09:46:21;;;;;;;0.42;0.28;;;;;;;4.91;100.00;100667.48;1771695;80;21129;-49
2020/12/30 09:48:49;;;;;;;0.45;0.45;;;;;;;4.95;100.00;100660.54;1791667;80;21255;-49
2020/12/30 09:51:17;;;;;;;0.20;0.20;;;;;;;4.98;100.00;100661.41;1787813;79;20980;-50
2020/12/30 09:53:45;;;;;;;1.90;0.37;;;;;;;4.99;100.00;100656.27;1773004;80;21379;-49
2020/12/30 09:56:13;;;;;;;0.40;0.40;;;;;;;5.00;100.00;100652.52;1774762;80;21119;-48
2020/12/30 09:58:41;;;;;;;0.10;0.10;;;;;;;5.02;100.00;100650.91;1767424;80;21155;-49
2020/12/30 10:01:10;;;;;;;1.10;0.90;;;;;;;5.02;100.00;100653.12;1791870;78;21147;-48
2020/12/30 10:03:38;;;;;;;0.00;0.00;;;;;;;5.02;100.00;100650.41;1794079;79;20988;-48
2020/12/30 10:06:07;;;;;;;0.30;0.30;;;;;;;5.03;100.00;100643.92;1758604;80;21205;-49
2020/12/30 10:08:35;;;;;;;0.78;0.45;;;;;;;5.07;100.00;100642.39;1779807;78;21525;-49
2020/12/30 10:11:02;;;;;;;4.92;0.88;;;;;;;5.09;100.00;100642.13;1814945;79;21139;-48
2020/12/30 10:13:30;;;;;;;2.62;0.85;;;;;;;5.07;100.00;100630.20;1808109;78;21541;-48
2020/12/30 10:15:58;;;;;;;1.35;0.45;;;;;;;5.06;100.00;100625.01;1791369;78;21577;-48
2020/12/30 10:18:26;;;;;;;0.20;0.20;;;;;;;5.05;100.00;100620.13;1784358;79;21115;-50
2020/12/30 10:20:54;;;;;;;0.20;0.20;;;;;;;5.05;100.00;100620.67;1782991;79;21102;-49
2020/12/30 10:23:21;;;;;;;1.52;0.75;;;;;;;5.02;100.00;100618.41;1782317;79;21142;-49
2020/12/30 10:25:49;;;;;;;0.10;0.10;;;;;;;4.97;100.00;100617.80;1778377;79;21135;-48
2020/12/30 10:28:16;;;;;;;4.37;0.40;;;;;;;4.97;100.00;100616.45;1779531;79;21003;-48
2020/12/30 10:30:44;;;;;;;3.95;1.57;;;;;;;5.01;100.00;100613.53;1781582;79;21149;-48
2020/12/30 10:33:13;;;;;;;0.35;0.30;;;;;;;5.06;100.00;100603.34;1785292;79;21561;-49
2020/12/30 10:35:41;;;;;;;3.70;0.57;;;;;;;5.14;100.00;100601.09;1802220;78;21134;-48
2020/12/30 10:38:09;;;;;;;0.00;0.00;;;;;;;5.21;100.00;100594.17;1779764;78;21173;-48
2020/12/30 10:40:36;;;;;;;0.45;0.30;;;;;;;5.29;100.00;100592.96;1771472;79;21581;-49
2020/12/30 10:43:04;;;;;;;1.20;0.70;;;;;;;5.38;100.00;100586.11;1777401;79;21117;-48
2020/12/30 10:45:33;;;;;;;0.05;0.05;;;;;;;5.45;100.00;100585.43;1802614;79;21102;-48
2020/12/30 10:48:00;;;;;;;0.10;0.10;;;;;;;5.52;100.00;100584.75;1775749;79;21125;-50
2020/12/30 10:50:27;;;;;;;1.22;0.75;;;;;;;5.54;100.00;100589.41;1781667;79;21202;-54
2020/12/30 10:52:55;;;;;;;1.37;1.30;;;;;;;5.56;100.00;100592.70;1789135;79;21127;-48
2020/12/30 10:55:23;;;;;;;0.00;0.00;;;;;;;5.59;100.00;100593.56;1781536;79;21422;-49
2020/12/30 10:57:51;;;;;;;0.75;0.55;;;;;;;5.65;100.00;100589.59;1786841;79;21794;-48
2020/12/30 11:00:20;;;;;;;0.23;0.13;;;;;;;5.65;100.00;100582.27;1816004;78;21549;-49
2020/12/30 11:02:47;;;;;;;0.10;0.10;;;;;;;5.65;100.00;100576.03;1810902;78;21644;-48
2020/12/30 11:05:15;;;;;;;1.05;0.55;;;;;;;5.65;100.00;100585.52;1787926;80;21111;-48
2020/12/30 11:07:42;;;;;;;0.28;0.28;;;;;;;5.62;100.00;100570.56;1826111;78;21185;-49
2020/12/30 11:10:10;;;;;;;0.13;0.13;;;;;;;5.60;100.00;100568.63;1779142;80;21548;-48
2020/12/30 11:12:38;;;;;;;0.57;0.57;;;;;;;5.54;100.00;100569.08;1779647;79;21226;-48
2020/12/30 11:15:06;;;;;;;0.30;0.30;;;;;;;5.52;100.00;100568.49;1762293;80;21154;-47
2020/12/30 11:17:34;;;;;;;0.33;0.28;;;;;;;5.50;100.00;100565.20;1787658;80;21123;-47
2020/12/30 11:20:02;;;;;;;0.00;0.00;;;;;;;5.48;100.00;100563.80;1757982;80;21149;-48
2020/12/30 11:22:29;;;;;;;0.57;0.57;;;;;;;5.49;100.00;100559.50;1805005;78;21993;-47
2020/12/30 11:24:57;;;;;;;0.05;0.05;;;;;;;5.47;100.00;100565.69;1819920;78;21106;-47
2020/12/30 11:27:25;;;;;;;0.20;0.20;;;;;;;5.45;100.00;100566.46;1781418;80;21469;-49
2020/12/30 11:29:52;;;;;;;1.67;0.80;;;;;;;5.44;100.00;100561.27;1792374;78;21162;-48
2020/12/30 11:32:20;;;;;;;0.37;0.37;;;;;;;5.46;100.00;100554.54;1769319;80;21511;-48
2020/12/30 11:34:49;;;;;;;2.83;0.42;;;;;;;5.49;100.00;100566.78;1789002;79;21158;-48